createdAt,value
2023-04-22T00:01:57.025Z,11.40
2023-04-22T00:04:24.287Z,11.40
2023-04-22T00:06:51.702Z,11.30
2023-04-22T00:09:18.961Z,11.30
2023-04-22T00:11:46.262Z,11.30
2023-04-22T00:14:13.277Z,11.30
2023-04-22T00:16:40.530Z,11.20
2023-04-22T00:19:09.737Z,11.20
2023-04-22T00:21:36.777Z,11.20
2023-04-22T00:24:04.170Z,11.10
2023-04-22T00:26:31.604Z,11.10
2023-04-22T00:28:58.534Z,11.00
2023-04-22T00:31:25.611Z,11.00
2023-04-22T00:33:52.750Z,11.00
2023-04-22T00:36:19.785Z,11.10
2023-04-22T00:38:52.855Z,11.20
2023-04-22T00:41:20.701Z,11.20
2023-04-22T00:43:47.865Z,11.10
2023-04-22T00:46:18.778Z,11.10
2023-04-22T00:48:46.809Z,11.10
2023-04-22T00:53:41.431Z,11.00
2023-04-22T00:56:09.102Z,11.00
2023-04-22T00:58:36.068Z,11.00
2023-04-22T01:01:03.658Z,11.00
2023-04-22T01:03:33.407Z,10.90
2023-04-22T01:06:00.625Z,10.90
2023-04-22T01:08:30.086Z,10.90
2023-04-22T01:10:58.699Z,10.80
2023-04-22T01:13:26.138Z,10.70
2023-04-22T01:15:54.489Z,10.60
2023-04-22T01:18:22.238Z,10.60
2023-04-22T01:20:49.716Z,10.60
2023-04-22T01:23:21.975Z,10.60
2023-04-22T01:25:50.142Z,10.50
2023-04-22T01:28:17.491Z,10.50
2023-04-22T01:30:45.090Z,10.50
2023-04-22T01:33:13.032Z,10.50
2023-04-22T01:35:40.396Z,10.40
2023-04-22T01:38:10.131Z,10.40
2023-04-22T01:40:40.102Z,10.40
2023-04-22T01:43:11.251Z,10.30
2023-04-22T01:45:43.448Z,10.40
2023-04-22T01:48:13.924Z,10.20
2023-04-22T01:50:41.096Z,10.20
2023-04-22T01:53:08.800Z,10.10
2023-04-22T01:55:37.342Z,10.20
2023-04-22T01:58:05.192Z,10.00
2023-04-22T02:00:32.512Z,10.00
2023-04-22T02:03:02.918Z,10.00
2023-04-22T02:05:30.666Z,10.00
2023-04-22T02:07:58.209Z,10.00
2023-04-22T02:10:25.187Z,10.00
2023-04-22T02:12:58.253Z,10.00
2023-04-22T02:15:32.679Z,9.90
2023-04-22T02:18:01.618Z,9.80
2023-04-22T02:20:28.951Z,9.80
2023-04-22T02:22:59.079Z,9.80
2023-04-22T02:25:29.095Z,9.80
2023-04-22T02:27:56.498Z,9.70
2023-04-22T02:30:25.190Z,9.80
2023-04-22T02:32:52.483Z,9.90
2023-04-22T02:35:19.598Z,9.90
2023-04-22T02:37:46.838Z,9.90
2023-04-22T02:40:16.508Z,9.90
2023-04-22T02:42:43.483Z,9.90
2023-04-22T02:45:11.168Z,10.00
2023-04-22T02:47:38.296Z,10.10
2023-04-22T02:50:06.622Z,10.20
2023-04-22T02:52:41.061Z,10.10
2023-04-22T02:55:09.084Z,10.10
2023-04-22T02:57:36.805Z,10.20
2023-04-22T03:00:04.831Z,10.10
2023-04-22T03:02:32.235Z,10.20
2023-04-22T03:05:00.939Z,10.10
2023-04-22T03:07:27.826Z,10.00
2023-04-22T03:09:56.377Z,10.10
2023-04-22T03:12:24.089Z,10.10
2023-04-22T03:14:51.123Z,10.10
2023-04-22T03:17:18.325Z,10.10
2023-04-22T03:19:47.833Z,10.20
2023-04-22T03:22:14.675Z,10.20
2023-04-22T03:24:42.382Z,10.30
2023-04-22T03:27:11.151Z,10.40
2023-04-22T03:29:38.472Z,10.50
2023-04-22T03:32:06.329Z,10.50
2023-04-22T03:34:34.221Z,10.50
2023-04-22T03:37:03.094Z,10.50
2023-04-22T03:39:31.934Z,10.50
2023-04-22T03:41:59.040Z,10.50
2023-04-22T03:44:26.138Z,10.40
2023-04-22T03:46:53.454Z,10.50
2023-04-22T03:51:48.533Z,10.40
2023-04-22T03:54:15.710Z,10.40
2023-04-22T03:56:42.865Z,10.50
2023-04-22T03:59:11.621Z,10.80
2023-04-22T04:01:38.776Z,11.50
2023-04-22T04:04:08.226Z,12.20
2023-04-22T04:06:36.034Z,12.60
2023-04-22T04:09:04.633Z,12.80
2023-04-22T04:11:34.878Z,12.90
2023-04-22T04:14:03.681Z,13.00
2023-04-22T04:16:36.531Z,13.10
2023-04-22T04:19:04.476Z,13.10
2023-04-22T04:21:35.118Z,13.20
2023-04-22T04:24:06.363Z,13.20
2023-04-22T04:26:33.918Z,13.10
2023-04-22T04:29:03.951Z,13.20
2023-04-22T04:31:31.041Z,13.10
2023-04-22T04:34:05.873Z,13.10
2023-04-22T04:36:33.897Z,13.10
2023-04-22T04:39:01.012Z,13.10
2023-04-22T04:41:29.668Z,13.00
2023-04-22T04:43:56.804Z,13.10
2023-04-22T04:46:24.203Z,13.00
2023-04-22T04:48:51.826Z,13.00
2023-04-22T04:51:20.413Z,12.90
2023-04-22T04:53:47.730Z,12.80
2023-04-22T04:56:15.193Z,12.90
2023-04-22T04:58:42.393Z,12.90
2023-04-22T05:01:09.895Z,12.90
2023-04-22T05:03:37.018Z,12.90
2023-04-22T05:06:08.690Z,12.90
2023-04-22T05:08:38.903Z,12.60
2023-04-22T05:11:09.128Z,12.40
2023-04-22T05:13:39.721Z,12.30
2023-04-22T05:16:15.163Z,12.20
2023-04-22T05:18:42.069Z,12.10
2023-04-22T05:21:09.784Z,12.10
2023-04-22T05:23:39.431Z,12.20
2023-04-22T05:26:06.732Z,12.50
2023-04-22T05:28:36.939Z,13.10
2023-04-22T05:31:07.485Z,13.40
2023-04-22T05:33:34.515Z,13.60
2023-04-22T05:36:01.668Z,13.70
2023-04-22T05:38:28.821Z,13.70
2023-04-22T05:40:58.884Z,13.60
2023-04-22T05:43:27.432Z,13.80
2023-04-22T05:45:54.731Z,13.50
2023-04-22T05:48:21.978Z,13.60
2023-04-22T05:50:51.411Z,13.70
2023-04-22T05:53:22.326Z,13.50
2023-04-22T05:55:52.448Z,13.20
2023-04-22T05:58:19.610Z,13.30
2023-04-22T06:00:46.774Z,13.50
2023-04-22T06:03:14.397Z,13.60
2023-04-22T06:05:42.351Z,13.50
2023-04-22T06:08:09.463Z,13.50
2023-04-22T06:10:42.542Z,13.40
2023-04-22T06:13:09.536Z,13.40
2023-04-22T06:15:36.596Z,13.50
2023-04-22T06:18:03.727Z,13.80
2023-04-22T06:20:32.838Z,13.90
2023-04-22T06:23:00.010Z,14.20
2023-04-22T06:25:27.368Z,14.40
2023-04-22T06:28:00.285Z,14.40
2023-04-22T06:30:28.072Z,14.90
2023-04-22T06:32:56.407Z,15.30
2023-04-22T06:35:23.827Z,15.50
2023-04-22T06:37:50.949Z,15.80
2023-04-22T06:40:18.300Z,15.90
2023-04-22T06:42:52.719Z,15.60
2023-04-22T06:45:20.685Z,16.00
2023-04-22T06:47:47.611Z,16.30
2023-04-22T06:50:14.762Z,15.80
2023-04-22T06:52:45.412Z,15.40
2023-04-22T06:55:23.924Z,15.50
2023-04-22T06:57:54.966Z,15.50
2023-04-22T07:00:36.441Z,15.70
2023-04-22T07:03:07.094Z,15.90
2023-04-22T07:05:40.221Z,15.50
2023-04-22T07:08:07.652Z,15.90
2023-04-22T07:10:37.850Z,16.10
2023-04-22T07:13:07.253Z,16.70
2023-04-22T07:15:34.934Z,17.20
2023-04-22T07:18:01.911Z,17.30
2023-04-22T07:20:31.975Z,17.80
2023-04-22T07:23:03.654Z,17.90
2023-04-22T07:25:32.841Z,17.70
2023-04-22T07:28:02.766Z,17.90
2023-04-22T07:30:33.124Z,17.40
2023-04-22T07:33:00.193Z,17.20
2023-04-22T07:35:29.290Z,17.10
2023-04-22T07:37:59.317Z,17.50
2023-04-22T07:40:26.235Z,17.60
2023-04-22T07:42:53.445Z,18.00
2023-04-22T07:45:20.757Z,17.60
2023-04-22T07:47:51.465Z,17.80
2023-04-22T07:50:18.745Z,17.60
2023-04-22T07:52:54.316Z,17.30
2023-04-22T07:55:22.894Z,17.50
2023-04-22T07:57:50.460Z,17.70
2023-04-22T08:00:18.112Z,17.50
2023-04-22T08:02:48.715Z,17.70
2023-04-22T08:05:25.657Z,18.10
2023-04-22T08:07:56.325Z,18.00
2023-04-22T08:10:32.728Z,18.00
2023-04-22T08:13:05.134Z,18.30
2023-04-22T08:15:35.691Z,18.70
2023-04-22T08:18:03.159Z,18.60
2023-04-22T08:20:33.376Z,18.80
2023-04-22T08:23:03.944Z,18.90
2023-04-22T08:25:31.771Z,18.50
2023-04-22T08:27:58.673Z,18.60
2023-04-22T08:30:31.223Z,18.80
2023-04-22T08:32:58.517Z,19.00
2023-04-22T08:35:25.559Z,19.70
2023-04-22T08:37:53.176Z,19.50
2023-04-22T08:40:21.504Z,20.10
2023-04-22T08:42:53.169Z,20.20
2023-04-22T08:45:26.301Z,19.30
2023-04-22T08:47:54.759Z,18.90
2023-04-22T08:50:22.874Z,19.10
2023-04-22T08:52:51.413Z,19.50
2023-04-22T08:55:22.499Z,19.60
2023-04-22T08:57:50.394Z,19.50
2023-04-22T09:00:19.514Z,19.30
2023-04-22T09:02:47.330Z,19.10
2023-04-22T09:05:15.184Z,18.90
2023-04-22T09:07:46.316Z,18.80
2023-04-22T09:10:13.545Z,19.00
2023-04-22T09:12:41.660Z,19.10
2023-04-22T09:15:10.092Z,19.60
2023-04-22T09:17:39.418Z,19.30
2023-04-22T09:20:15.196Z,19.80
2023-04-22T09:22:48.649Z,19.90
2023-04-22T09:25:25.888Z,19.80
2023-04-22T09:27:59.998Z,19.50
2023-04-22T09:30:33.116Z,19.70
2023-04-22T09:33:02.441Z,20.00
2023-04-22T09:35:35.934Z,20.00
2023-04-22T09:38:08.845Z,20.10
2023-04-22T09:40:37.712Z,20.10
2023-04-22T09:43:08.807Z,20.00
2023-04-22T09:45:39.357Z,20.20
2023-04-22T09:48:14.702Z,20.10
2023-04-22T09:50:44.994Z,20.50
2023-04-22T09:53:14.992Z,20.50
2023-04-22T09:55:54.539Z,20.50
2023-04-22T09:58:24.134Z,20.50
2023-04-22T10:01:01.947Z,20.60
2023-04-22T10:03:29.592Z,20.90
2023-04-22T10:05:57.334Z,20.60
2023-04-22T10:08:24.312Z,20.90
2023-04-22T10:10:51.496Z,21.20
2023-04-22T10:13:18.622Z,21.40
2023-04-22T10:15:57.404Z,21.70
2023-04-22T10:18:28.378Z,22.10
2023-04-22T10:20:58.045Z,22.00
2023-04-22T10:23:32.379Z,22.40
2023-04-22T10:25:59.786Z,22.10
2023-04-22T10:28:30.637Z,22.10
2023-04-22T10:30:57.666Z,22.10
2023-04-22T10:33:25.044Z,21.90
2023-04-22T10:36:10.559Z,21.80
2023-04-22T10:38:40.137Z,21.90
2023-04-22T10:41:09.934Z,21.90
2023-04-22T10:43:49.793Z,22.00
2023-04-22T10:46:39.779Z,22.30
2023-04-22T10:49:08.370Z,22.30
2023-04-22T10:51:52.270Z,22.20
2023-04-22T10:54:31.776Z,22.50
2023-04-22T10:57:11.558Z,22.50
2023-04-22T10:59:45.794Z,22.00
2023-04-22T11:02:16.227Z,21.90
2023-04-22T11:04:43.788Z,21.60
2023-04-22T11:07:30.189Z,21.70
2023-04-22T11:10:01.705Z,22.30
2023-04-22T11:12:38.888Z,22.60
2023-04-22T11:15:18.188Z,22.30
2023-04-22T11:17:46.898Z,22.00
2023-04-22T11:20:17.937Z,22.10
2023-04-22T11:22:53.442Z,22.20
2023-04-22T11:25:22.338Z,22.40
2023-04-22T11:27:51.508Z,22.70
2023-04-22T11:30:24.120Z,22.20
2023-04-22T11:32:56.142Z,22.60
2023-04-22T11:35:32.409Z,22.70
2023-04-22T11:38:04.154Z,22.80
2023-04-22T11:40:39.417Z,22.70
2023-04-22T11:43:08.630Z,22.60
2023-04-22T11:45:37.695Z,22.40
2023-04-22T11:48:06.847Z,22.60
2023-04-22T11:50:39.499Z,22.60
2023-04-22T11:53:26.632Z,22.30
2023-04-22T11:55:53.723Z,22.60
2023-04-22T11:58:25.675Z,22.60
2023-04-22T12:00:54.415Z,22.70
2023-04-22T12:03:40.497Z,22.50
2023-04-22T12:06:07.982Z,22.00
2023-04-22T12:08:42.690Z,21.70
2023-04-22T12:11:11.290Z,21.70
2023-04-22T12:13:38.617Z,22.20
2023-04-22T12:16:10.200Z,22.50
2023-04-22T12:18:39.716Z,22.50
2023-04-22T12:21:15.536Z,22.50
2023-04-22T12:23:43.750Z,23.00
2023-04-22T12:26:11.432Z,23.00
2023-04-22T12:28:39.688Z,23.00
2023-04-22T12:31:11.031Z,23.20
2023-04-22T12:33:38.640Z,23.40
2023-04-22T12:36:06.943Z,23.20
2023-04-22T12:38:34.640Z,23.30
2023-04-22T12:41:03.585Z,23.30
2023-04-22T12:43:32.259Z,23.00
2023-04-22T12:46:00.558Z,23.10
2023-04-22T12:48:28.274Z,23.10
2023-04-22T12:50:55.679Z,23.00
2023-04-22T12:53:22.787Z,22.80
2023-04-22T12:55:52.694Z,22.70
2023-04-22T12:58:19.687Z,22.80
2023-04-22T13:00:46.796Z,22.70
2023-04-22T13:03:13.989Z,22.60
2023-04-22T13:05:44.176Z,22.60
2023-04-22T13:08:11.291Z,22.20
2023-04-22T13:10:40.999Z,22.30
2023-04-22T13:15:39.181Z,22.30
2023-04-22T13:18:06.770Z,22.30
2023-04-22T13:20:34.542Z,22.50
2023-04-22T13:23:02.515Z,22.80
2023-04-22T13:25:29.369Z,22.80
2023-04-22T13:27:56.618Z,22.80
2023-04-22T13:30:23.690Z,22.80
2023-04-22T13:32:50.680Z,22.90
2023-04-22T13:35:18.445Z,23.10
2023-04-22T13:37:47.029Z,22.90
2023-04-22T13:40:16.817Z,21.90
2023-04-22T13:42:44.495Z,21.30
2023-04-22T13:45:11.631Z,21.60
2023-04-22T13:47:38.503Z,21.80
2023-04-22T13:50:06.359Z,21.90
2023-04-22T13:52:34.144Z,21.80
2023-04-22T13:55:02.380Z,21.80
2023-04-22T13:57:29.182Z,22.20
2023-04-22T13:59:56.494Z,22.30
2023-04-22T14:02:23.374Z,22.50
2023-04-22T14:04:50.558Z,22.70
2023-04-22T14:07:17.947Z,22.80
2023-04-22T14:09:44.754Z,23.00
2023-04-22T14:12:11.676Z,22.90
2023-04-22T14:14:39.583Z,22.90
2023-04-22T14:17:07.093Z,22.60
2023-04-22T14:19:34.131Z,22.40
2023-04-22T14:22:01.186Z,22.40
2023-04-22T14:24:32.138Z,22.40
2023-04-22T14:27:01.799Z,22.40
2023-04-22T14:29:30.038Z,22.30
2023-04-22T14:32:00.115Z,22.20
2023-04-22T14:34:27.545Z,22.20
2023-04-22T14:36:54.681Z,22.00
2023-04-22T14:39:22.026Z,22.00
2023-04-22T14:41:49.597Z,22.00
2023-04-22T14:44:16.624Z,22.00
2023-04-22T14:46:45.565Z,22.00
2023-04-22T14:49:12.693Z,22.20
2023-04-22T14:51:40.400Z,22.20
2023-04-22T14:54:07.292Z,22.00
2023-04-22T14:56:34.434Z,21.80
2023-04-22T14:59:01.616Z,21.80
2023-04-22T15:01:28.568Z,21.80
2023-04-22T15:03:55.742Z,21.80
2023-04-22T15:06:23.522Z,21.80
2023-04-22T15:08:51.759Z,21.70
2023-04-22T15:11:19.067Z,21.80
2023-04-22T15:13:48.712Z,21.80
2023-04-22T15:16:15.613Z,21.90
2023-04-22T15:18:42.650Z,22.00
2023-04-22T15:21:10.624Z,22.00
2023-04-22T15:23:37.729Z,22.00
2023-04-22T15:26:07.848Z,22.00
2023-04-22T15:28:35.031Z,21.90
2023-04-22T15:31:02.149Z,21.90
2023-04-22T15:33:29.341Z,21.90
2023-04-22T15:35:56.272Z,21.80
2023-04-22T15:38:24.863Z,21.70
2023-04-22T15:40:51.807Z,21.60
2023-04-22T15:43:18.712Z,21.60
2023-04-22T15:45:45.770Z,21.60
2023-04-22T15:48:12.932Z,21.60
2023-04-22T15:50:40.822Z,21.50
2023-04-22T15:53:07.922Z,21.50
2023-04-22T15:55:34.924Z,21.50
2023-04-22T15:58:02.556Z,21.40
2023-04-22T16:00:30.493Z,21.40
2023-04-22T16:02:57.633Z,21.40
2023-04-22T16:05:25.223Z,21.40
2023-04-22T16:07:53.344Z,21.30
2023-04-22T16:10:21.005Z,21.20
2023-04-22T16:12:47.949Z,21.10
2023-04-22T16:15:16.940Z,21.00
2023-04-22T16:17:45.167Z,20.80
2023-04-22T16:20:12.634Z,20.70
2023-04-22T16:22:39.865Z,20.60
2023-04-22T16:25:08.130Z,20.60
2023-04-22T16:27:35.792Z,20.40
2023-04-22T16:30:02.816Z,19.90
2023-04-22T16:32:30.291Z,18.70
2023-04-22T16:34:57.299Z,17.70
2023-04-22T16:37:25.528Z,17.50
2023-04-22T16:39:52.694Z,17.20
2023-04-22T16:42:20.304Z,17.10
2023-04-22T16:44:47.107Z,17.20
2023-04-22T16:47:14.685Z,17.10
2023-04-22T16:49:41.852Z,16.80
2023-04-22T16:52:12.318Z,17.10
2023-04-22T16:54:41.381Z,16.90
2023-04-22T16:57:10.378Z,16.80
2023-04-22T16:59:38.108Z,16.80
2023-04-22T17:02:05.184Z,16.90
2023-04-22T17:04:32.334Z,16.80
2023-04-22T17:06:59.585Z,16.80
2023-04-22T17:09:26.770Z,16.70
2023-04-22T17:11:53.993Z,16.70
2023-04-22T17:14:20.920Z,16.70
2023-04-22T17:16:48.209Z,16.70
2023-04-22T17:19:15.285Z,16.80
2023-04-22T17:21:47.799Z,16.90
2023-04-22T17:24:23.869Z,17.00
2023-04-22T17:26:50.724Z,17.00
2023-04-22T17:29:21.744Z,17.00
2023-04-22T17:31:50.111Z,17.00
2023-04-22T17:34:17.294Z,17.00
2023-04-22T17:36:44.128Z,17.00
2023-04-22T17:39:11.975Z,17.00
2023-04-22T17:41:39.188Z,16.90
2023-04-22T17:44:08.812Z,16.90
2023-04-22T17:46:36.155Z,16.90
2023-04-22T17:49:03.221Z,16.90
2023-04-22T17:51:30.100Z,16.80
2023-04-22T17:53:57.379Z,16.80
2023-04-22T17:56:25.161Z,16.70
2023-04-22T17:58:55.289Z,16.70
2023-04-22T18:01:22.569Z,16.70
2023-04-22T18:03:49.761Z,16.60
2023-04-22T18:06:16.670Z,16.60
2023-04-22T18:08:43.741Z,16.60
2023-04-22T18:11:13.810Z,16.50
2023-04-22T18:13:41.294Z,16.60
2023-04-22T18:16:08.696Z,16.50
2023-04-22T18:18:35.638Z,16.40
2023-04-22T18:21:02.548Z,16.30
2023-04-22T18:23:29.590Z,16.30
2023-04-22T18:25:56.763Z,16.30
2023-04-22T18:28:24.348Z,16.30
2023-04-22T18:30:51.862Z,16.20
2023-04-22T18:33:22.221Z,16.20
2023-04-22T18:35:49.591Z,16.20
2023-04-22T18:38:17.612Z,16.20
2023-04-22T18:40:47.567Z,16.20
2023-04-22T18:43:14.536Z,16.20
2023-04-22T18:45:41.949Z,16.20
2023-04-22T18:48:09.215Z,16.20
2023-04-22T18:50:38.611Z,16.20
2023-04-22T18:53:05.996Z,16.20
2023-04-22T18:55:36.042Z,16.10
2023-04-22T18:58:10.620Z,16.10
2023-04-22T19:00:38.838Z,16.00
2023-04-22T19:03:05.841Z,16.00
2023-04-22T19:05:33.107Z,16.00
2023-04-22T19:08:00.445Z,16.00
2023-04-22T19:10:27.488Z,16.10
2023-04-22T19:12:54.945Z,16.00
2023-04-22T19:15:22.694Z,15.90
2023-04-22T19:17:50.381Z,16.00
2023-04-22T19:20:18.198Z,16.00
2023-04-22T19:22:45.359Z,16.00
2023-04-22T19:25:12.452Z,15.90
2023-04-22T19:27:39.556Z,15.90
2023-04-22T19:30:07.019Z,15.90
2023-04-22T19:32:34.049Z,15.90
2023-04-22T19:35:03.832Z,15.90
2023-04-22T19:37:31.922Z,15.90
2023-04-22T19:39:58.928Z,15.90
2023-04-22T19:42:26.023Z,15.90
2023-04-22T19:44:52.867Z,15.90
2023-04-22T19:47:19.858Z,15.80
2023-04-22T19:49:47.112Z,15.70
2023-04-22T19:52:15.587Z,15.70
2023-04-22T19:54:47.755Z,15.60
2023-04-22T19:57:16.121Z,15.60
2023-04-22T19:59:44.955Z,15.50
2023-04-22T20:02:20.104Z,15.40
2023-04-22T20:04:51.483Z,15.30
2023-04-22T20:09:56.573Z,15.00
2023-04-22T20:12:23.757Z,14.90
2023-04-22T20:14:53.307Z,14.80
2023-04-22T20:17:23.168Z,14.80
2023-04-22T20:19:53.208Z,14.70
2023-04-22T20:22:24.814Z,14.50
2023-04-22T20:25:04.238Z,14.50
2023-04-22T20:27:38.225Z,14.50
2023-04-22T20:30:06.316Z,14.40
2023-04-22T20:32:33.466Z,14.30
2023-04-22T20:35:04.775Z,14.30
2023-04-22T20:37:32.546Z,14.30
2023-04-22T20:40:20.340Z,14.30
2023-04-22T20:42:53.034Z,14.30
2023-04-22T20:45:22.575Z,14.30
2023-04-22T20:47:49.407Z,14.30
2023-04-22T20:50:16.363Z,14.20
2023-04-22T20:52:43.923Z,14.20
2023-04-22T20:55:14.573Z,14.10
2023-04-22T20:57:41.756Z,14.00
2023-04-22T21:00:12.726Z,14.00
2023-04-22T21:02:47.997Z,14.00
2023-04-22T21:05:16.836Z,13.90
2023-04-22T21:07:55.863Z,13.90
2023-04-22T21:10:26.454Z,13.90
2023-04-22T21:12:57.288Z,13.90
2023-04-22T21:15:27.731Z,13.90
2023-04-22T21:18:08.221Z,14.00
2023-04-22T21:20:45.520Z,14.00
2023-04-22T21:23:18.449Z,13.90
2023-04-22T21:25:53.115Z,13.90
2023-04-22T21:28:22.292Z,13.90
2023-04-22T21:30:49.560Z,13.90
2023-04-22T21:33:16.822Z,13.90
2023-04-22T21:35:43.858Z,13.90
2023-04-22T21:38:11.148Z,13.90
2023-04-22T21:40:47.762Z,13.90
2023-04-22T21:43:17.642Z,13.90
2023-04-22T21:45:44.833Z,13.90
2023-04-22T21:48:11.614Z,13.90
2023-04-22T21:50:46.058Z,13.80
2023-04-22T21:53:23.305Z,13.80
2023-04-22T21:55:50.694Z,13.90
2023-04-22T21:58:17.720Z,13.90
2023-04-22T22:00:45.236Z,13.90
2023-04-22T22:03:12.873Z,13.80
2023-04-22T22:05:40.075Z,13.80
2023-04-22T22:08:09.789Z,13.80
2023-04-22T22:10:40.512Z,13.70
2023-04-22T22:13:08.205Z,13.90
2023-04-22T22:15:38.685Z,13.80
2023-04-22T22:18:07.595Z,13.80
2023-04-22T22:20:34.833Z,13.70
2023-04-22T22:23:01.763Z,13.80
2023-04-22T22:25:34.785Z,13.80
2023-04-22T22:28:06.826Z,13.80
2023-04-22T22:30:33.710Z,13.90
2023-04-22T22:33:03.699Z,13.90
2023-04-22T22:35:30.892Z,13.90
2023-04-22T22:37:57.738Z,13.90
2023-04-22T22:40:27.669Z,13.90
2023-04-22T22:42:56.324Z,13.90
2023-04-22T22:45:26.412Z,14.00
2023-04-22T22:47:54.209Z,13.90
2023-04-22T22:50:21.472Z,13.80
2023-04-22T22:52:51.456Z,13.40
2023-04-22T22:55:20.790Z,13.30
2023-04-22T22:57:47.882Z,13.20
2023-04-22T23:00:22.198Z,13.20
2023-04-22T23:02:49.387Z,13.00
2023-04-22T23:05:20.084Z,13.00
2023-04-22T23:07:49.555Z,12.90
2023-04-22T23:10:22.504Z,13.00
2023-04-22T23:12:49.422Z,13.00
2023-04-22T23:15:19.262Z,12.90
2023-04-22T23:17:53.699Z,12.80
2023-04-22T23:20:22.305Z,12.70
2023-04-22T23:22:52.530Z,12.70
2023-04-22T23:25:20.182Z,12.70
2023-04-22T23:27:47.426Z,12.80
2023-04-22T23:30:14.778Z,12.70
2023-04-22T23:32:50.007Z,12.70
2023-04-22T23:35:20.598Z,12.70
2023-04-22T23:37:50.908Z,12.60
2023-04-22T23:40:17.800Z,12.70
2023-04-22T23:42:47.341Z,12.50
2023-04-22T23:45:14.665Z,12.50
2023-04-22T23:47:41.748Z,12.60
2023-04-22T23:50:08.992Z,12.60
2023-04-22T23:52:41.164Z,12.50
2023-04-22T23:55:10.529Z,12.50
2023-04-22T23:57:39.804Z,12.50
